Terminal Aerodrome Forecast
Issued by NWS

Home | Current Version | Previous Version | Text Only | Print | Product List | Glossary On
Versions: 1 2 3 4 5 6 7 8 9 10 11 12 13 14 15 16 17 18 19 20 21
000
FTUS46 KMTR 281128
TAFSNS
TAF
KSNS 281128Z 2812/2912 28003KT P6SM OVC007
     FM281730 29006KT P6SM SKC
     FM282000 28015G20KT P6SM SKC
     FM290400 27011KT P6SM OVC007=

USA.gov is the U.S. government's official web portal to all federal, state and local government web resources and services.